Time;durP1;ratioP1;P1;durP2;ratioP2;P2;SDS_P1;SDS_P2;PMS_P1;PMS_P2;Temp;Humidity;BMP_temperature;BMP_pressure;BME280_temperature;BME280_humidity;BME280_pressure;Samples;Min_cycle;Max_cycle;Signal;HPM_P1;HPM_P2
2021/03/17 00:00:52;;;;;;;0.10;0.10;;;;;;;;;;5073037;28;20421;-64
2021/03/17 00:03:18;;;;;;;0.20;0.20;;;;;;;;;;5091359;28;20024;-64
2021/03/17 00:05:43;;;;;;;0.20;0.20;;;;;;;;;;5056754;28;20047;-63
2021/03/17 00:08:08;;;;;;;0.20;0.20;;;;;;;;;;5091255;28;20286;-63
2021/03/17 00:10:35;;;;;;;0.20;0.20;;;;;;;;;;5090379;28;20067;-64
2021/03/17 00:13:00;;;;;;;0.20;0.20;;;;;;;;;;5072979;28;20020;-63
2021/03/17 00:15:26;;;;;;;0.10;0.10;;;;;;;;;;5056430;28;20016;-64
2021/03/17 00:17:51;;;;;;;0.20;0.20;;;;;;;;;;5070995;28;20479;-64
2021/03/17 00:20:17;;;;;;;0.10;0.10;;;;;;;;;;5071504;28;20043;-63
2021/03/17 00:22:42;;;;;;;0.20;0.20;;;;;;;;;;5056149;28;20366;-63
2021/03/17 00:25:07;;;;;;;0.20;0.20;;;;;;;;;;5090750;28;20043;-63
2021/03/17 00:27:33;;;;;;;0.20;0.20;;;;;;;;;;5072321;28;20039;-63
2021/03/17 00:29:58;;;;;;;0.20;0.20;;;;;;;;;;5055395;28;20107;-64
2021/03/17 00:32:23;;;;;;;0.20;0.20;;;;;;;;;;5072267;28;20133;-63
2021/03/17 00:34:48;;;;;;;0.20;0.20;;;;;;;;;;5072179;28;20016;-64
2021/03/17 00:37:13;;;;;;;0.20;0.20;;;;;;;;;;5071959;28;20028;-64
2021/03/17 00:39:39;;;;;;;0.20;0.20;;;;;;;;;;5072402;28;20274;-64
2021/03/17 00:45:07;;;;;;;0.20;0.20;;;;;;;;;;5080170;28;20027;-64
2021/03/17 00:47:32;;;;;;;0.20;0.20;;;;;;;;;;5049210;28;20528;-64
2021/03/17 00:49:57;;;;;;;0.20;0.20;;;;;;;;;;5065519;28;20031;-63
2021/03/17 00:52:22;;;;;;;0.15;0.15;;;;;;;;;;5068857;28;20286;-64
2021/03/17 00:54:48;;;;;;;0.10;0.10;;;;;;;;;;5068478;28;20100;-63
2021/03/17 00:57:13;;;;;;;0.20;0.20;;;;;;;;;;5069128;28;20028;-63
2021/03/17 00:59:38;;;;;;;0.20;0.20;;;;;;;;;;5069417;28;20384;-64
2021/03/17 01:02:03;;;;;;;0.20;0.20;;;;;;;;;;5068985;28;20262;-63
2021/03/17 01:04:28;;;;;;;0.20;0.20;;;;;;;;;;5069259;28;20742;-64
2021/03/17 01:06:54;;;;;;;0.10;0.10;;;;;;;;;;5083147;28;20377;-64
2021/03/17 01:09:19;;;;;;;0.20;0.20;;;;;;;;;;5052885;28;20397;-64
2021/03/17 01:11:44;;;;;;;0.20;0.20;;;;;;;;;;5051771;28;20274;-64
2021/03/17 01:14:10;;;;;;;0.20;0.20;;;;;;;;;;5086558;28;20305;-64
2021/03/17 01:16:35;;;;;;;0.20;0.20;;;;;;;;;;5068122;28;20274;-64
2021/03/17 01:19:00;;;;;;;0.20;0.20;;;;;;;;;;5051793;28;20028;-63
2021/03/17 01:21:25;;;;;;;0.20;0.20;;;;;;;;;;5051038;28;20016;-63
2021/03/17 01:23:51;;;;;;;0.20;0.20;;;;;;;;;;5069084;28;21134;-63
2021/03/17 01:26:16;;;;;;;0.20;0.20;;;;;;;;;;5052411;28;20298;-63
2021/03/17 01:28:42;;;;;;;0.10;0.10;;;;;;;;;;5052159;28;20452;-64
2021/03/17 01:31:07;;;;;;;0.20;0.20;;;;;;;;;;5069379;28;20269;-63
2021/03/17 01:33:32;;;;;;;0.20;0.20;;;;;;;;;;5052965;28;20048;-63
2021/03/17 01:35:57;;;;;;;0.20;0.20;;;;;;;;;;5052595;28;20019;-64
2021/03/17 01:38:23;;;;;;;0.10;0.10;;;;;;;;;;5068761;28;20274;-63
2021/03/17 01:40:48;;;;;;;0.20;0.20;;;;;;;;;;5069098;28;20311;-63
2021/03/17 01:43:13;;;;;;;0.20;0.20;;;;;;;;;;5069001;28;20020;-63
2021/03/17 01:45:38;;;;;;;0.20;0.20;;;;;;;;;;5070331;28;20029;-64
2021/03/17 01:48:04;;;;;;;0.20;0.20;;;;;;;;;;5072957;28;20026;-63
2021/03/17 01:50:30;;;;;;;0.20;0.20;;;;;;;;;;5056193;28;20270;-63
2021/03/17 01:52:55;;;;;;;0.20;0.20;;;;;;;;;;5071687;28;20026;-63
2021/03/17 01:55:21;;;;;;;0.20;0.20;;;;;;;;;;5091073;28;20107;-63
2021/03/17 01:57:46;;;;;;;0.20;0.20;;;;;;;;;;5072985;28;20040;-63
2021/03/17 02:00:12;;;;;;;0.20;0.20;;;;;;;;;;5073129;28;20032;-63
2021/03/17 02:02:38;;;;;;;0.20;0.20;;;;;;;;;;5072264;28;20043;-64
2021/03/17 02:05:13;;;;;;;0.10;0.10;;;;;;;;;;5057109;28;20081;-63
2021/03/17 02:07:38;;;;;;;0.10;0.10;;;;;;;;;;5073095;28;20098;-63
2021/03/17 02:10:08;;;;;;;0.17;0.17;;;;;;;;;;5088059;28;20162;-62
2021/03/17 02:12:36;;;;;;;0.20;0.20;;;;;;;;;;5093329;28;20026;-63
2021/03/17 02:15:10;;;;;;;0.17;0.17;;;;;;;;;;5093423;28;20047;-63
2021/03/17 02:17:35;;;;;;;0.20;0.20;;;;;;;;;;5093241;28;20504;-63
2021/03/17 02:20:19;;;;;;;0.20;0.20;;;;;;;;;;5093759;28;20019;-63
2021/03/17 02:22:48;;;;;;;0.20;0.20;;;;;;;;;;5110980;28;20269;-63
2021/03/17 02:25:32;;;;;;;0.20;0.20;;;;;;;;;;5101215;28;20023;-63
2021/03/17 02:28:16;;;;;;;0.10;0.10;;;;;;;;;;5091980;28;20400;-64
2021/03/17 02:30:47;;;;;;;0.20;0.20;;;;;;;;;;5091748;28;20311;-64
2021/03/17 02:33:31;;;;;;;0.20;0.20;;;;;;;;;;5091154;28;20019;-64
2021/03/17 02:36:01;;;;;;;0.20;0.20;;;;;;;;;;5113369;27;20064;-65
2021/03/17 02:38:26;;;;;;;0.20;0.20;;;;;;;;;;5091164;28;20499;-64
2021/03/17 02:40:51;;;;;;;0.20;0.20;;;;;;;;;;5090899;28;20027;-65
2021/03/17 02:43:17;;;;;;;0.20;0.20;;;;;;;;;;5089793;28;20031;-65
2021/03/17 02:45:44;;;;;;;0.20;0.20;;;;;;;;;;5091593;28;20265;-65
2021/03/17 02:48:13;;;;;;;0.20;0.20;;;;;;;;;;5091083;28;20131;-64
2021/03/17 02:50:40;;;;;;;0.20;0.20;;;;;;;;;;5074991;28;20068;-65
2021/03/17 02:53:05;;;;;;;0.20;0.20;;;;;;;;;;5092200;28;20126;-65
2021/03/17 02:55:34;;;;;;;0.20;0.20;;;;;;;;;;5091257;28;20118;-65
2021/03/17 02:57:59;;;;;;;0.10;0.10;;;;;;;;;;5090627;28;21059;-65
2021/03/17 03:00:25;;;;;;;0.20;0.20;;;;;;;;;;5074493;28;20028;-65
2021/03/17 03:02:51;;;;;;;0.20;0.20;;;;;;;;;;5090511;28;20043;-65
2021/03/17 03:05:16;;;;;;;0.20;0.20;;;;;;;;;;5091120;28;20038;-65
2021/03/17 03:07:41;;;;;;;0.20;0.20;;;;;;;;;;5072352;28;20069;-65
2021/03/17 03:10:08;;;;;;;0.20;0.20;;;;;;;;;;5072674;28;20056;-64
2021/03/17 03:12:33;;;;;;;0.20;0.20;;;;;;;;;;5074311;28;20046;-64
2021/03/17 03:14:58;;;;;;;0.20;0.20;;;;;;;;;;5088565;28;20016;-64
2021/03/17 03:17:23;;;;;;;0.20;0.20;;;;;;;;;;5072145;28;20364;-64
2021/03/17 03:19:49;;;;;;;0.20;0.20;;;;;;;;;;5074348;28;20272;-65
2021/03/17 03:22:14;;;;;;;0.20;0.20;;;;;;;;;;5090960;28;20269;-65
2021/03/17 03:24:40;;;;;;;0.20;0.20;;;;;;;;;;5070190;28;20023;-64
2021/03/17 03:27:05;;;;;;;0.20;0.20;;;;;;;;;;5090552;28;20265;-65
2021/03/17 03:29:30;;;;;;;0.20;0.20;;;;;;;;;;5073366;28;20106;-65
2021/03/17 03:31:55;;;;;;;0.20;0.20;;;;;;;;;;5090126;28;20102;-65
2021/03/17 03:34:21;;;;;;;0.20;0.20;;;;;;;;;;5100599;28;20272;-65
2021/03/17 03:36:48;;;;;;;0.20;0.20;;;;;;;;;;5073214;28;20016;-65
2021/03/17 03:39:14;;;;;;;0.20;0.20;;;;;;;;;;5089073;28;20726;-64
2021/03/17 03:41:39;;;;;;;0.10;0.10;;;;;;;;;;5073490;28;20039;-64
2021/03/17 03:44:04;;;;;;;0.20;0.20;;;;;;;;;;5091668;28;20030;-64
2021/03/17 03:46:30;;;;;;;0.20;0.20;;;;;;;;;;5090183;28;20072;-65
2021/03/17 03:48:55;;;;;;;0.10;0.10;;;;;;;;;;5090654;28;20124;-64
2021/03/17 03:51:20;;;;;;;0.20;0.20;;;;;;;;;;5088915;28;20039;-65
2021/03/17 03:53:48;;;;;;;0.20;0.20;;;;;;;;;;5090407;28;20036;-65
2021/03/17 03:56:13;;;;;;;0.17;0.17;;;;;;;;;;5104922;28;20023;-65
2021/03/17 03:58:46;;;;;;;0.20;0.20;;;;;;;;;;5108402;28;20441;-65
2021/03/17 04:01:11;;;;;;;0.20;0.20;;;;;;;;;;5089730;28;20284;-64
2021/03/17 04:03:38;;;;;;;0.20;0.20;;;;;;;;;;5088612;28;20145;-65
2021/03/17 04:06:03;;;;;;;0.20;0.20;;;;;;;;;;5091717;28;20023;-65
2021/03/17 04:08:28;;;;;;;0.20;0.20;;;;;;;;;;5071512;28;20046;-65
2021/03/17 04:10:58;;;;;;;0.20;0.20;;;;;;;;;;5055652;28;20024;-65
2021/03/17 04:13:24;;;;;;;0.20;0.20;;;;;;;;;;5055540;28;20035;-65
2021/03/17 04:15:49;;;;;;;0.20;0.20;;;;;;;;;;5072066;28;20016;-65
2021/03/17 04:18:15;;;;;;;0.20;0.20;;;;;;;;;;5072922;28;20346;-64
2021/03/17 04:20:42;;;;;;;0.20;0.20;;;;;;;;;;5072324;28;20015;-65
2021/03/17 04:23:07;;;;;;;0.20;0.20;;;;;;;;;;5072476;28;20102;-64
2021/03/17 04:25:33;;;;;;;0.20;0.20;;;;;;;;;;5055747;28;20598;-65
2021/03/17 04:27:58;;;;;;;0.20;0.20;;;;;;;;;;5071864;28;20043;-65
2021/03/17 04:30:23;;;;;;;0.20;0.20;;;;;;;;;;5056243;28;20016;-64
2021/03/17 04:32:49;;;;;;;0.20;0.20;;;;;;;;;;5055144;28;20269;-64
2021/03/17 04:35:14;;;;;;;0.20;0.20;;;;;;;;;;5072450;28;20465;-64
2021/03/17 04:37:41;;;;;;;0.20;0.20;;;;;;;;;;5071910;28;20286;-64
2021/03/17 04:40:06;;;;;;;0.20;0.20;;;;;;;;;;5072177;28;20032;-65
2021/03/17 04:42:32;;;;;;;0.20;0.20;;;;;;;;;;5071900;28;20031;-65
2021/03/17 04:44:57;;;;;;;0.20;0.20;;;;;;;;;;5071972;28;20694;-64
2021/03/17 04:47:22;;;;;;;0.20;0.20;;;;;;;;;;5072474;28;20273;-64
2021/03/17 04:49:47;;;;;;;0.20;0.20;;;;;;;;;;5071857;28;20058;-65
2021/03/17 04:52:13;;;;;;;0.20;0.20;;;;;;;;;;5072442;28;20028;-64
2021/03/17 04:54:38;;;;;;;0.20;0.20;;;;;;;;;;5071855;28;20016;-64
2021/03/17 04:57:03;;;;;;;0.20;0.20;;;;;;;;;;5071627;28;20019;-64
2021/03/17 04:59:28;;;;;;;0.20;0.20;;;;;;;;;;5072150;28;20266;-65
2021/03/17 05:01:53;;;;;;;0.20;0.20;;;;;;;;;;5055281;28;20044;-65
2021/03/17 05:04:19;;;;;;;0.20;0.20;;;;;;;;;;5090396;28;20772;-64
2021/03/17 05:06:45;;;;;;;0.30;0.30;;;;;;;;;;5071549;28;20282;-65
2021/03/17 05:09:10;;;;;;;0.20;0.20;;;;;;;;;;5071885;28;20075;-65
2021/03/17 05:11:36;;;;;;;0.20;0.20;;;;;;;;;;5071616;28;20153;-65
2021/03/17 05:14:01;;;;;;;0.20;0.20;;;;;;;;;;5071623;28;20544;-65
2021/03/17 05:16:26;;;;;;;0.25;0.25;;;;;;;;;;5071815;28;20019;-64
2021/03/17 05:18:51;;;;;;;0.20;0.20;;;;;;;;;;5071254;28;20077;-65
2021/03/17 05:21:16;;;;;;;0.20;0.20;;;;;;;;;;5054806;28;20365;-65
2021/03/17 05:23:41;;;;;;;0.20;0.20;;;;;;;;;;5071363;28;20754;-64
2021/03/17 05:26:07;;;;;;;0.20;0.20;;;;;;;;;;5054961;28;20028;-64
2021/03/17 05:28:32;;;;;;;0.20;0.20;;;;;;;;;;5055006;28;20364;-64
2021/03/17 05:30:57;;;;;;;0.20;0.20;;;;;;;;;;5054974;28;20266;-65
2021/03/17 05:33:24;;;;;;;0.22;0.22;;;;;;;;;;5071640;28;20028;-65
2021/03/17 05:35:49;;;;;;;0.30;0.30;;;;;;;;;;5071548;28;20016;-65
2021/03/17 05:38:15;;;;;;;0.20;0.20;;;;;;;;;;5071890;28;20390;-65
2021/03/17 05:40:40;;;;;;;0.20;0.20;;;;;;;;;;5071602;28;20536;-64
2021/03/17 05:43:06;;;;;;;0.20;0.20;;;;;;;;;;5054858;28;20396;-64
2021/03/17 05:45:32;;;;;;;0.20;0.20;;;;;;;;;;5071730;28;20658;-64
2021/03/17 05:47:57;;;;;;;0.20;0.20;;;;;;;;;;5089878;28;20020;-65
2021/03/17 05:50:23;;;;;;;0.30;0.30;;;;;;;;;;5055212;28;20024;-64
2021/03/17 05:52:48;;;;;;;0.20;0.20;;;;;;;;;;5055174;28;20764;-65
2021/03/17 05:55:13;;;;;;;0.20;0.20;;;;;;;;;;5071808;28;20024;-64
2021/03/17 05:57:39;;;;;;;0.20;0.20;;;;;;;;;;5070077;28;20020;-65
2021/03/17 06:00:08;;;;;;;0.20;0.20;;;;;;;;;;5071621;28;20027;-64
2021/03/17 06:02:33;;;;;;;0.20;0.20;;;;;;;;;;5054633;28;20101;-65
2021/03/17 06:04:59;;;;;;;0.20;0.20;;;;;;;;;;5054781;28;20081;-64
2021/03/17 06:07:24;;;;;;;0.22;0.22;;;;;;;;;;5054902;28;20016;-65
2021/03/17 06:09:52;;;;;;;0.20;0.20;;;;;;;;;;5067045;28;20058;-64
2021/03/17 06:12:17;;;;;;;0.20;0.20;;;;;;;;;;5073735;28;20473;-64
2021/03/17 06:14:42;;;;;;;0.20;0.20;;;;;;;;;;5091968;28;20024;-64
2021/03/17 06:17:08;;;;;;;0.20;0.20;;;;;;;;;;5090665;28;20039;-64
2021/03/17 06:19:33;;;;;;;0.20;0.20;;;;;;;;;;5090791;28;20468;-64
2021/03/17 06:21:59;;;;;;;0.20;0.20;;;;;;;;;;5091073;28;20460;-64
2021/03/17 06:24:24;;;;;;;0.20;0.20;;;;;;;;;;5091781;28;20333;-63
2021/03/17 06:26:49;;;;;;;0.30;0.30;;;;;;;;;;5074764;28;20023;-64
2021/03/17 06:29:15;;;;;;;0.20;0.20;;;;;;;;;;5074789;28;20384;-64
2021/03/17 06:31:40;;;;;;;0.20;0.20;;;;;;;;;;5093143;28;20026;-64
2021/03/17 06:34:05;;;;;;;0.20;0.20;;;;;;;;;;5078004;28;20019;-64
2021/03/17 06:36:31;;;;;;;0.20;0.20;;;;;;;;;;5076011;28;20412;-64
2021/03/17 06:39:03;;;;;;;0.30;0.30;;;;;;;;;;5092202;28;20331;-64
2021/03/17 06:41:29;;;;;;;0.30;0.30;;;;;;;;;;5076648;28;20024;-64
2021/03/17 06:43:54;;;;;;;0.20;0.20;;;;;;;;;;5093559;28;20373;-64
2021/03/17 06:46:19;;;;;;;0.30;0.30;;;;;;;;;;5093400;28;20039;-64
2021/03/17 06:48:45;;;;;;;0.20;0.20;;;;;;;;;;5099087;28;20918;-65
2021/03/17 06:51:11;;;;;;;0.20;0.20;;;;;;;;;;5102776;28;20031;-65
2021/03/17 06:53:43;;;;;;;0.20;0.20;;;;;;;;;;5080210;28;20047;-64
2021/03/17 06:56:11;;;;;;;0.20;0.20;;;;;;;;;;5110243;28;20075;-64
2021/03/17 06:58:40;;;;;;;0.20;0.20;;;;;;;;;;5109094;28;20023;-64
2021/03/17 07:01:09;;;;;;;0.20;0.20;;;;;;;;;;5109147;28;20024;-64
2021/03/17 07:03:34;;;;;;;0.20;0.20;;;;;;;;;;5074170;28;20491;-64
2021/03/17 07:06:01;;;;;;;0.20;0.20;;;;;;;;;;5090380;28;20098;-63
2021/03/17 07:08:26;;;;;;;0.20;0.20;;;;;;;;;;5090273;28;21156;-65
2021/03/17 07:10:54;;;;;;;0.20;0.20;;;;;;;;;;5069415;28;20032;-64
2021/03/17 07:13:20;;;;;;;0.20;0.20;;;;;;;;;;5070254;28;20042;-64
2021/03/17 07:15:45;;;;;;;0.20;0.20;;;;;;;;;;5056783;28;20008;-64
2021/03/17 07:18:11;;;;;;;0.20;0.20;;;;;;;;;;5057333;28;20319;-64
2021/03/17 07:20:37;;;;;;;0.20;0.20;;;;;;;;;;5056872;28;20690;-65
2021/03/17 07:23:21;;;;;;;0.20;0.20;;;;;;;;;;5073788;28;20044;-65
2021/03/17 07:26:14;;;;;;;0.20;0.20;;;;;;;;;;5091371;28;20388;-64
2021/03/17 07:28:52;;;;;;;0.20;0.20;;;;;;;;;;5087021;28;20032;-64
2021/03/17 07:31:18;;;;;;;0.20;0.20;;;;;;;;;;5073341;28;20035;-65
2021/03/17 07:33:43;;;;;;;0.20;0.20;;;;;;;;;;5073598;28;20034;-65
2021/03/17 07:36:09;;;;;;;0.20;0.20;;;;;;;;;;5056770;28;20012;-65
2021/03/17 07:38:34;;;;;;;0.20;0.20;;;;;;;;;;5073637;28;20089;-65
2021/03/17 07:40:59;;;;;;;0.20;0.20;;;;;;;;;;5073728;28;20461;-65
2021/03/17 07:43:26;;;;;;;0.20;0.20;;;;;;;;;;5056621;28;20493;-65
2021/03/17 07:45:51;;;;;;;0.20;0.20;;;;;;;;;;5073423;28;20023;-65
2021/03/17 07:48:16;;;;;;;0.17;0.17;;;;;;;;;;5073573;28;20568;-66
2021/03/17 07:50:41;;;;;;;0.20;0.20;;;;;;;;;;5056545;28;20304;-65
2021/03/17 07:53:18;;;;;;;0.15;0.15;;;;;;;;;;5092167;28;20282;-65
2021/03/17 07:55:46;;;;;;;0.20;0.20;;;;;;;;;;5073732;28;20549;-65
2021/03/17 07:58:12;;;;;;;0.20;0.20;;;;;;;;;;5056798;28;20384;-65
2021/03/17 08:00:37;;;;;;;0.20;0.20;;;;;;;;;;5073673;28;20051;-65
2021/03/17 08:03:03;;;;;;;0.20;0.20;;;;;;;;;;5073561;28;20081;-65
2021/03/17 08:05:28;;;;;;;0.20;0.20;;;;;;;;;;5073224;28;20051;-65
2021/03/17 08:07:53;;;;;;;0.20;0.20;;;;;;;;;;5056843;28;20020;-65
2021/03/17 08:10:19;;;;;;;0.10;0.10;;;;;;;;;;5089777;28;20047;-65
2021/03/17 08:12:44;;;;;;;0.20;0.20;;;;;;;;;;5077136;28;20265;-65
2021/03/17 08:15:13;;;;;;;0.17;0.17;;;;;;;;;;5076675;28;20027;-65
2021/03/17 08:17:38;;;;;;;0.20;0.20;;;;;;;;;;5093936;28;20043;-65
2021/03/17 08:20:22;;;;;;;0.20;0.20;;;;;;;;;;5111689;28;20046;-65
2021/03/17 08:22:48;;;;;;;0.20;0.20;;;;;;;;;;5093585;28;20786;-64
2021/03/17 08:25:33;;;;;;;0.20;0.20;;;;;;;;;;5093213;28;20150;-64
2021/03/17 08:28:17;;;;;;;0.20;0.20;;;;;;;;;;5111318;28;20024;-64
2021/03/17 08:30:42;;;;;;;0.20;0.20;;;;;;;;;;5092204;28;20039;-65
2021/03/17 08:33:07;;;;;;;0.20;0.20;;;;;;;;;;5076134;28;20015;-64
2021/03/17 08:35:51;;;;;;;0.20;0.20;;;;;;;;;;5093275;28;20288;-64
2021/03/17 08:38:17;;;;;;;0.20;0.20;;;;;;;;;;5111888;28;20368;-64
2021/03/17 08:40:45;;;;;;;0.20;0.20;;;;;;;;;;5092681;28;20176;-64
2021/03/17 08:43:37;;;;;;;0.10;0.10;;;;;;;;;;5093217;28;20257;-65
2021/03/17 08:46:15;;;;;;;0.20;0.20;;;;;;;;;;5088028;28;20035;-64
2021/03/17 08:48:56;;;;;;;0.10;0.10;;;;;;;;;;5091948;28;20027;-64
2021/03/17 08:51:40;;;;;;;0.20;0.20;;;;;;;;;;5076030;28;20266;-64
2021/03/17 08:54:24;;;;;;;0.20;0.20;;;;;;;;;;5110009;28;20020;-65
2021/03/17 08:56:49;;;;;;;0.20;0.20;;;;;;;;;;5092981;28;20031;-64
2021/03/17 08:59:15;;;;;;;0.17;0.17;;;;;;;;;;5090566;28;20104;-65
2021/03/17 09:01:41;;;;;;;0.20;0.20;;;;;;;;;;5089044;28;20023;-65
2021/03/17 09:04:06;;;;;;;0.20;0.20;;;;;;;;;;5076510;28;20051;-64
2021/03/17 09:06:31;;;;;;;0.15;0.15;;;;;;;;;;5072136;28;20289;-64
2021/03/17 09:08:58;;;;;;;0.20;0.20;;;;;;;;;;5107430;28;20051;-64
2021/03/17 09:11:29;;;;;;;0.20;0.20;;;;;;;;;;5075503;28;20080;-64
2021/03/17 09:13:54;;;;;;;0.20;0.20;;;;;;;;;;5092221;28;20016;-64
2021/03/17 09:16:20;;;;;;;0.20;0.20;;;;;;;;;;5092100;28;20026;-64
2021/03/17 09:18:56;;;;;;;0.10;0.10;;;;;;;;;;5110287;28;20372;-64
2021/03/17 09:21:34;;;;;;;0.13;0.13;;;;;;;;;;5091590;28;20413;-64
2021/03/17 09:23:59;;;;;;;0.20;0.20;;;;;;;;;;5091397;28;20024;-64
2021/03/17 09:26:27;;;;;;;0.10;0.10;;;;;;;;;;5091388;28;20031;-64
2021/03/17 09:28:52;;;;;;;0.20;0.20;;;;;;;;;;5109841;28;20817;-64
2021/03/17 09:31:17;;;;;;;0.20;0.20;;;;;;;;;;5091417;28;20020;-64
2021/03/17 09:33:43;;;;;;;0.20;0.20;;;;;;;;;;5090978;28;20296;-64
2021/03/17 09:36:08;;;;;;;0.20;0.20;;;;;;;;;;5092044;28;20016;-65
2021/03/17 09:38:37;;;;;;;0.10;0.10;;;;;;;;;;5110284;28;20035;-64
2021/03/17 09:41:09;;;;;;;0.20;0.20;;;;;;;;;;5092064;28;20122;-65
2021/03/17 09:43:35;;;;;;;0.20;0.20;;;;;;;;;;5110254;28;20024;-65
2021/03/17 09:46:01;;;;;;;0.20;0.20;;;;;;;;;;5091963;28;20026;-65
2021/03/17 09:48:26;;;;;;;0.10;0.10;;;;;;;;;;5075324;28;20138;-65
2021/03/17 09:50:55;;;;;;;0.17;0.17;;;;;;;;;;5110302;28;20384;-65
2021/03/17 09:53:20;;;;;;;0.20;0.20;;;;;;;;;;5075054;28;20019;-65
2021/03/17 09:55:45;;;;;;;0.10;0.10;;;;;;;;;;5075089;28;20027;-65
2021/03/17 09:58:10;;;;;;;0.20;0.20;;;;;;;;;;5110000;28;20261;-65
2021/03/17 10:00:36;;;;;;;0.13;0.13;;;;;;;;;;5091782;28;20034;-64
2021/03/17 10:03:01;;;;;;;0.20;0.20;;;;;;;;;;5110185;28;20709;-64
2021/03/17 10:05:27;;;;;;;0.10;0.10;;;;;;;;;;5091944;28;20426;-65
2021/03/17 10:07:52;;;;;;;0.20;0.20;;;;;;;;;;5095176;28;20468;-65
2021/03/17 10:10:18;;;;;;;0.20;0.20;;;;;;;;;;5095398;28;20468;-64
2021/03/17 10:12:43;;;;;;;0.20;0.20;;;;;;;;;;5096271;28;20015;-64
2021/03/17 10:15:13;;;;;;;0.10;0.10;;;;;;;;;;5078729;28;20023;-65
2021/03/17 10:17:38;;;;;;;0.20;0.20;;;;;;;;;;5095971;28;20020;-65
2021/03/17 10:20:04;;;;;;;0.10;0.10;;;;;;;;;;5113934;28;20027;-64
2021/03/17 10:22:29;;;;;;;0.10;0.10;;;;;;;;;;5077798;28;20118;-65
2021/03/17 10:24:55;;;;;;;0.10;0.10;;;;;;;;;;5096670;28;20095;-65
2021/03/17 10:27:24;;;;;;;0.13;0.13;;;;;;;;;;5094804;28;20031;-64
2021/03/17 10:29:50;;;;;;;0.10;0.10;;;;;;;;;;5078123;28;20425;-63
2021/03/17 10:32:16;;;;;;;0.20;0.20;;;;;;;;;;5095297;28;20015;-63
2021/03/17 10:34:41;;;;;;;0.20;0.20;;;;;;;;;;5093932;28;20019;-64
2021/03/17 10:37:10;;;;;;;0.10;0.10;;;;;;;;;;5095048;28;20482;-64
2021/03/17 10:39:35;;;;;;;0.20;0.20;;;;;;;;;;5095104;28;20031;-63
2021/03/17 10:42:00;;;;;;;0.20;0.20;;;;;;;;;;5094463;28;20084;-63
2021/03/17 10:44:26;;;;;;;0.20;0.20;;;;;;;;;;5095254;28;20429;-64
2021/03/17 10:47:10;;;;;;;0.20;0.20;;;;;;;;;;5094715;28;20020;-64
2021/03/17 10:49:43;;;;;;;0.20;0.20;;;;;;;;;;5095289;28;20079;-63
2021/03/17 10:52:08;;;;;;;0.20;0.20;;;;;;;;;;5094009;28;20020;-63
2021/03/17 10:54:34;;;;;;;0.20;0.20;;;;;;;;;;5075419;28;20476;-64
2021/03/17 10:57:00;;;;;;;0.20;0.20;;;;;;;;;;5074630;28;20031;-64
2021/03/17 10:59:32;;;;;;;0.20;0.20;;;;;;;;;;5091178;28;20028;-64
2021/03/17 11:02:16;;;;;;;0.20;0.20;;;;;;;;;;5074412;28;20122;-64
2021/03/17 11:05:00;;;;;;;0.20;0.20;;;;;;;;;;5109479;28;20023;-63
2021/03/17 11:07:25;;;;;;;0.10;0.10;;;;;;;;;;5090747;28;20027;-63
2021/03/17 11:09:51;;;;;;;0.13;0.13;;;;;;;;;;5097875;28;20051;-63
2021/03/17 11:12:16;;;;;;;0.20;0.20;;;;;;;;;;5071012;28;20638;-63
2021/03/17 11:14:41;;;;;;;0.10;0.10;;;;;;;;;;5072899;28;20028;-63
2021/03/17 11:17:07;;;;;;;0.20;0.20;;;;;;;;;;5071725;28;20341;-63
2021/03/17 11:19:32;;;;;;;0.10;0.10;;;;;;;;;;5055067;28;20316;-62
2021/03/17 11:21:57;;;;;;;0.10;0.10;;;;;;;;;;5069545;28;20054;-63
2021/03/17 11:24:22;;;;;;;0.20;0.20;;;;;;;;;;5073424;28;20028;-63
2021/03/17 11:26:48;;;;;;;0.20;0.20;;;;;;;;;;5072886;28;20433;-62
2021/03/17 11:29:16;;;;;;;0.10;0.10;;;;;;;;;;5073511;28;20026;-62
2021/03/17 11:31:42;;;;;;;0.20;0.20;;;;;;;;;;5091863;28;20087;-63
2021/03/17 11:34:08;;;;;;;0.20;0.20;;;;;;;;;;5073241;28;20043;-63
2021/03/17 11:36:33;;;;;;;0.20;0.20;;;;;;;;;;5059975;28;20012;-62
2021/03/17 11:38:58;;;;;;;0.20;0.20;;;;;;;;;;5081202;28;20078;-62
2021/03/17 11:41:24;;;;;;;0.20;0.20;;;;;;;;;;5061929;28;20290;-63
2021/03/17 11:43:49;;;;;;;0.20;0.20;;;;;;;;;;5056370;28;20368;-64
2021/03/17 11:46:14;;;;;;;0.20;0.20;;;;;;;;;;5073431;28;20087;-64
2021/03/17 11:48:39;;;;;;;0.20;0.20;;;;;;;;;;5073261;28;20031;-64
2021/03/17 11:51:05;;;;;;;0.20;0.20;;;;;;;;;;5072472;28;20027;-63
2021/03/17 11:53:32;;;;;;;0.20;0.20;;;;;;;;;;5071280;28;20131;-64
2021/03/17 11:55:58;;;;;;;0.15;0.15;;;;;;;;;;5073594;28;20384;-64
2021/03/17 11:58:24;;;;;;;0.20;0.20;;;;;;;;;;5055465;28;21398;-64
2021/03/17 12:00:49;;;;;;;0.20;0.20;;;;;;;;;;5056637;28;20053;-63
2021/03/17 12:03:15;;;;;;;0.20;0.20;;;;;;;;;;5056671;28;20023;-64
2021/03/17 12:05:40;;;;;;;0.10;0.10;;;;;;;;;;5056021;28;20384;-64
2021/03/17 12:08:05;;;;;;;0.20;0.20;;;;;;;;;;5055996;28;20389;-65
2021/03/17 12:10:30;;;;;;;0.10;0.10;;;;;;;;;;5072332;28;20520;-64
2021/03/17 12:12:56;;;;;;;0.10;0.10;;;;;;;;;;5055889;28;20266;-65
2021/03/17 12:15:21;;;;;;;0.10;0.10;;;;;;;;;;5072695;28;20020;-65
2021/03/17 12:17:47;;;;;;;0.10;0.10;;;;;;;;;;5072509;28;20031;-65
2021/03/17 12:20:12;;;;;;;0.10;0.10;;;;;;;;;;5091991;28;20106;-70
2021/03/17 12:22:37;;;;;;;0.10;0.10;;;;;;;;;;5093091;28;20380;-70
2021/03/17 12:25:04;;;;;;;0.00;0.00;;;;;;;;;;5057951;28;20065;-70
2021/03/17 12:27:29;;;;;;;0.00;0.00;;;;;;;;;;5074949;28;20016;-70
2021/03/17 12:29:55;;;;;;;0.00;0.00;;;;;;;;;;5092096;28;20020;-71
2021/03/17 12:32:20;;;;;;;0.00;0.00;;;;;;;;;;5074308;28;20087;-71
2021/03/17 12:34:45;;;;;;;0.00;0.00;;;;;;;;;;5092772;28;20618;-70
2021/03/17 12:37:11;;;;;;;0.00;0.00;;;;;;;;;;5074442;28;20292;-70
2021/03/17 12:39:37;;;;;;;0.00;0.00;;;;;;;;;;5074698;28;20032;-70
2021/03/17 12:42:02;;;;;;;0.00;0.00;;;;;;;;;;5057872;28;20472;-70
2021/03/17 12:44:27;;;;;;;0.00;0.00;;;;;;;;;;5058016;28;20028;-71
2021/03/17 12:46:52;;;;;;;0.00;0.00;;;;;;;;;;5057970;28;20023;-71
2021/03/17 12:49:17;;;;;;;0.00;0.00;;;;;;;;;;5072768;28;20285;-71
2021/03/17 12:51:43;;;;;;;0.00;0.00;;;;;;;;;;5057663;28;20254;-71
2021/03/17 12:54:08;;;;;;;0.00;0.00;;;;;;;;;;5056771;28;20273;-71
2021/03/17 12:56:33;;;;;;;0.00;0.00;;;;;;;;;;5073979;28;20514;-72
2021/03/17 12:58:59;;;;;;;0.00;0.00;;;;;;;;;;5074159;28;20281;-72
2021/03/17 13:01:24;;;;;;;0.00;0.00;;;;;;;;;;5092026;28;20061;-71
2021/03/17 13:03:49;;;;;;;0.00;0.00;;;;;;;;;;5057362;28;20472;-71
2021/03/17 13:06:15;;;;;;;0.00;0.00;;;;;;;;;;5074465;28;20319;-71
2021/03/17 13:08:40;;;;;;;0.00;0.00;;;;;;;;;;5091964;28;20638;-71
2021/03/17 13:11:05;;;;;;;0.00;0.00;;;;;;;;;;5074137;28;20395;-71
2021/03/17 13:13:31;;;;;;;0.00;0.00;;;;;;;;;;5074859;28;20012;-71
2021/03/17 13:15:56;;;;;;;0.00;0.00;;;;;;;;;;5073412;28;20460;-70
2021/03/17 13:18:21;;;;;;;0.00;0.00;;;;;;;;;;5074241;28;20392;-70
2021/03/17 13:20:46;;;;;;;0.00;0.00;;;;;;;;;;5074298;28;20266;-70
2021/03/17 13:23:11;;;;;;;0.00;0.00;;;;;;;;;;5057351;28;20030;-70
2021/03/17 13:25:37;;;;;;;0.10;0.10;;;;;;;;;;5091446;28;20028;-70
2021/03/17 13:28:05;;;;;;;0.10;0.10;;;;;;;;;;5074695;28;20020;-70
2021/03/17 13:30:31;;;;;;;0.10;0.10;;;;;;;;;;5092335;28;20016;-70
2021/03/17 13:32:56;;;;;;;0.10;0.10;;;;;;;;;;5091451;28;20020;-70
2021/03/17 13:35:22;;;;;;;0.10;0.10;;;;;;;;;;5091395;28;20301;-70
2021/03/17 13:37:47;;;;;;;0.10;0.10;;;;;;;;;;5073884;28;20353;-70
2021/03/17 13:40:13;;;;;;;0.83;0.17;;;;;;;;;;5074684;28;20103;-70
2021/03/17 13:42:38;;;;;;;0.10;0.10;;;;;;;;;;5079365;28;20274;-70
2021/03/17 13:45:07;;;;;;;0.10;0.10;;;;;;;;;;5062576;28;20062;-70
2021/03/17 13:47:33;;;;;;;0.10;0.10;;;;;;;;;;5079047;28;20032;-70
2021/03/17 13:49:58;;;;;;;0.10;0.10;;;;;;;;;;5077145;28;20020;-70
2021/03/17 13:52:23;;;;;;;0.10;0.10;;;;;;;;;;5085536;28;20453;-70
2021/03/17 13:54:48;;;;;;;0.10;0.10;;;;;;;;;;5061682;28;20266;-70
2021/03/17 13:57:13;;;;;;;0.10;0.10;;;;;;;;;;5077359;28;20258;-70
2021/03/17 13:59:38;;;;;;;0.10;0.10;;;;;;;;;;5077456;28;20031;-70
2021/03/17 14:02:04;;;;;;;0.10;0.10;;;;;;;;;;5077673;28;20294;-69
2021/03/17 14:04:29;;;;;;;0.10;0.10;;;;;;;;;;5077652;28;20281;-70
2021/03/17 14:06:54;;;;;;;0.10;0.10;;;;;;;;;;5096942;28;20024;-71
2021/03/17 14:09:19;;;;;;;0.10;0.10;;;;;;;;;;5060688;28;20291;-71
2021/03/17 14:11:44;;;;;;;0.10;0.10;;;;;;;;;;5078410;28;20527;-71
2021/03/17 14:14:10;;;;;;;0.10;0.10;;;;;;;;;;5061882;28;20261;-71
2021/03/17 14:16:35;;;;;;;0.10;0.10;;;;;;;;;;5078522;28;20290;-71
2021/03/17 14:19:02;;;;;;;0.10;0.10;;;;;;;;;;5078578;28;20052;-71
2021/03/17 14:21:28;;;;;;;0.10;0.10;;;;;;;;;;5078547;28;20020;-71
2021/03/17 14:23:53;;;;;;;0.10;0.10;;;;;;;;;;5095285;28;20103;-72
2021/03/17 14:26:18;;;;;;;0.10;0.10;;;;;;;;;;5070141;28;20031;-71
2021/03/17 14:28:43;;;;;;;0.10;0.10;;;;;;;;;;5078039;28;20846;-71
2021/03/17 14:31:08;;;;;;;0.10;0.10;;;;;;;;;;5078223;28;20254;-70
2021/03/17 14:33:33;;;;;;;0.10;0.10;;;;;;;;;;5078329;28;20467;-70
2021/03/17 14:35:59;;;;;;;0.10;0.10;;;;;;;;;;5096177;28;20258;-71
2021/03/17 14:38:24;;;;;;;0.10;0.10;;;;;;;;;;5077536;28;20020;-70
2021/03/17 14:40:49;;;;;;;0.10;0.10;;;;;;;;;;5075523;28;20270;-71
2021/03/17 14:43:14;;;;;;;0.10;0.10;;;;;;;;;;5060766;28;20024;-70